Aviation Digital Data Service (ADDS)

Output produced by METARs form (1313 UTC 24 January 2017)
found at http://aviationweather.gov/adds/metars/
 
KECG 241146Z 2412/2512 30014G22KT P6SM OVC015 
     TEMPO 2412/2415 5SM -RA BR OVC008 
     FM241700 30015G23KT P6SM OVC035 
     FM242100 29012G18KT P6SM SCT050 
     FM250300 28009KT P6SM SKC